sensor_id;sensor_type;location;lat;lon;timestamp;P1;durP1;ratioP1;P2;durP2;ratioP2
64915;SDS011;51427;-27.442;153.014;2022-09-03T00:01:55;0.50;;;0.50;;
64915;SDS011;51427;-27.442;153.014;2022-09-03T00:10:04;1.27;;;0.98;;
64915;SDS011;51427;-27.442;153.014;2022-09-03T00:12:39;1.05;;;0.52;;
64915;SDS011;51427;-27.442;153.014;2022-09-03T00:15:27;0.68;;;0.43;;
64915;SDS011;51427;-27.442;153.014;2022-09-03T00:20:41;0.45;;;0.40;;
64915;SDS011;51427;-27.442;153.014;2022-09-03T00:23:21;1.80;;;0.50;;
64915;SDS011;51427;-27.442;153.014;2022-09-03T00:28:41;0.88;;;0.30;;
64915;SDS011;51427;-27.442;153.014;2022-09-03T00:31:24;0.68;;;0.25;;
64915;SDS011;51427;-27.442;153.014;2022-09-03T00:36:42;1.13;;;0.50;;
64915;SDS011;51427;-27.442;153.014;2022-09-03T00:39:14;2.38;;;0.90;;
64915;SDS011;51427;-27.442;153.014;2022-09-03T00:41:47;1.23;;;0.45;;
64915;SDS011;51427;-27.442;153.014;2022-09-03T00:56:07;0.47;;;0.43;;
64915;SDS011;51427;-27.442;153.014;2022-09-03T01:01:14;0.38;;;0.38;;
64915;SDS011;51427;-27.442;153.014;2022-09-03T01:04:07;0.30;;;0.30;;
64915;SDS011;51427;-27.442;153.014;2022-09-03T01:06:53;1.17;;;0.40;;
64915;SDS011;51427;-27.442;153.014;2022-09-03T01:15:16;0.20;;;0.20;;
64915;SDS011;51427;-27.442;153.014;2022-09-03T01:18:11;0.32;;;0.30;;
64915;SDS011;51427;-27.442;153.014;2022-09-03T01:31:59;0.30;;;0.30;;
64915;SDS011;51427;-27.442;153.014;2022-09-03T01:39:59;0.20;;;0.20;;
64915;SDS011;51427;-27.442;153.014;2022-09-03T01:50:43;0.20;;;0.20;;
64915;SDS011;51427;-27.442;153.014;2022-09-03T01:58:48;0.30;;;0.30;;
64915;SDS011;51427;-27.442;153.014;2022-09-03T02:01:29;0.73;;;0.20;;
64915;SDS011;51427;-27.442;153.014;2022-09-03T02:04:11;0.77;;;0.15;;
64915;SDS011;51427;-27.442;153.014;2022-09-03T02:06:42;0.30;;;0.30;;
64915;SDS011;51427;-27.442;153.014;2022-09-03T02:09:10;0.10;;;0.10;;
64915;SDS011;51427;-27.442;153.014;2022-09-03T02:11:38;0.63;;;0.20;;
64915;SDS011;51427;-27.442;153.014;2022-09-03T02:14:07;0.20;;;0.20;;
64915;SDS011;51427;-27.442;153.014;2022-09-03T02:16:35;0.32;;;0.20;;
64915;SDS011;51427;-27.442;153.014;2022-09-03T02:19:08;0.30;;;0.30;;
64915;SDS011;51427;-27.442;153.014;2022-09-03T02:21:38;0.40;;;0.15;;
64915;SDS011;51427;-27.442;153.014;2022-09-03T02:24:11;0.20;;;0.20;;
64915;SDS011;51427;-27.442;153.014;2022-09-03T02:26:39;0.10;;;0.10;;
64915;SDS011;51427;-27.442;153.014;2022-09-03T02:29:06;0.38;;;0.38;;
64915;SDS011;51427;-27.442;153.014;2022-09-03T02:31:34;0.38;;;0.38;;
64915;SDS011;51427;-27.442;153.014;2022-09-03T02:34:01;0.20;;;0.20;;
64915;SDS011;51427;-27.442;153.014;2022-09-03T02:36:33;0.90;;;0.20;;
64915;SDS011;51427;-27.442;153.014;2022-09-03T02:39:05;0.10;;;0.10;;
64915;SDS011;51427;-27.442;153.014;2022-09-03T02:41:32;0.52;;;0.20;;
64915;SDS011;51427;-27.442;153.014;2022-09-03T02:44:11;0.20;;;0.15;;
64915;SDS011;51427;-27.442;153.014;2022-09-03T02:46:43;0.30;;;0.30;;
64915;SDS011;51427;-27.442;153.014;2022-09-03T02:49:15;0.20;;;0.20;;
64915;SDS011;51427;-27.442;153.014;2022-09-03T02:51:42;0.10;;;0.10;;
64915;SDS011;51427;-27.442;153.014;2022-09-03T02:54:10;0.20;;;0.20;;
64915;SDS011;51427;-27.442;153.014;2022-09-03T02:56:38;0.20;;;0.20;;
64915;SDS011;51427;-27.442;153.014;2022-09-03T02:59:06;0.60;;;0.20;;
64915;SDS011;51427;-27.442;153.014;2022-09-03T03:01:34;1.13;;;0.20;;
64915;SDS011;51427;-27.442;153.014;2022-09-03T03:04:02;1.42;;;0.30;;
64915;SDS011;51427;-27.442;153.014;2022-09-03T03:06:30;1.10;;;0.50;;
64915;SDS011;51427;-27.442;153.014;2022-09-03T03:08:57;0.38;;;0.35;;
64915;SDS011;51427;-27.442;153.014;2022-09-03T03:11:28;0.20;;;0.20;;
64915;SDS011;51427;-27.442;153.014;2022-09-03T03:13:55;1.20;;;0.20;;
64915;SDS011;51427;-27.442;153.014;2022-09-03T03:16:23;0.50;;;0.40;;
64915;SDS011;51427;-27.442;153.014;2022-09-03T03:18:51;0.63;;;0.50;;
64915;SDS011;51427;-27.442;153.014;2022-09-03T03:21:18;0.43;;;0.20;;
64915;SDS011;51427;-27.442;153.014;2022-09-03T03:23:45;0.20;;;0.20;;
64915;SDS011;51427;-27.442;153.014;2022-09-03T03:26:14;0.43;;;0.30;;
64915;SDS011;51427;-27.442;153.014;2022-09-03T03:28:43;0.43;;;0.28;;
64915;SDS011;51427;-27.442;153.014;2022-09-03T03:31:16;1.10;;;0.80;;
64915;SDS011;51427;-27.442;153.014;2022-09-03T03:33:59;0.20;;;0.20;;
64915;SDS011;51427;-27.442;153.014;2022-09-03T03:36:29;0.55;;;0.15;;
64915;SDS011;51427;-27.442;153.014;2022-09-03T03:38:59;0.20;;;0.20;;
64915;SDS011;51427;-27.442;153.014;2022-09-03T03:41:28;0.63;;;0.10;;
64915;SDS011;51427;-27.442;153.014;2022-09-03T03:43:58;0.20;;;0.20;;
64915;SDS011;51427;-27.442;153.014;2022-09-03T03:46:31;0.20;;;0.20;;
64915;SDS011;51427;-27.442;153.014;2022-09-03T03:49:07;0.80;;;0.20;;
64915;SDS011;51427;-27.442;153.014;2022-09-03T03:51:35;0.13;;;0.13;;
64915;SDS011;51427;-27.442;153.014;2022-09-03T03:54:03;2.45;;;0.20;;
64915;SDS011;51427;-27.442;153.014;2022-09-03T03:56:31;0.25;;;0.20;;
64915;SDS011;51427;-27.442;153.014;2022-09-03T03:58:59;0.10;;;0.10;;
64915;SDS011;51427;-27.442;153.014;2022-09-03T04:01:26;0.30;;;0.30;;
64915;SDS011;51427;-27.442;153.014;2022-09-03T04:03:54;0.30;;;0.20;;
64915;SDS011;51427;-27.442;153.014;2022-09-03T04:06:23;0.50;;;0.20;;
64915;SDS011;51427;-27.442;153.014;2022-09-03T04:08:51;0.20;;;0.20;;
64915;SDS011;51427;-27.442;153.014;2022-09-03T04:11:19;0.10;;;0.10;;
64915;SDS011;51427;-27.442;153.014;2022-09-03T04:13:48;0.35;;;0.10;;
64915;SDS011;51427;-27.442;153.014;2022-09-03T04:16:17;0.20;;;0.20;;
64915;SDS011;51427;-27.442;153.014;2022-09-03T04:18:46;0.20;;;0.20;;
64915;SDS011;51427;-27.442;153.014;2022-09-03T04:21:15;0.10;;;0.10;;
64915;SDS011;51427;-27.442;153.014;2022-09-03T04:23:45;0.20;;;0.20;;
64915;SDS011;51427;-27.442;153.014;2022-09-03T04:26:25;0.20;;;0.20;;
64915;SDS011;51427;-27.442;153.014;2022-09-03T04:29:01;0.20;;;0.20;;
64915;SDS011;51427;-27.442;153.014;2022-09-03T04:31:31;0.60;;;0.20;;
64915;SDS011;51427;-27.442;153.014;2022-09-03T04:34:00;0.45;;;0.10;;
64915;SDS011;51427;-27.442;153.014;2022-09-03T04:36:28;0.10;;;0.10;;
64915;SDS011;51427;-27.442;153.014;2022-09-03T04:39:00;0.10;;;0.10;;
64915;SDS011;51427;-27.442;153.014;2022-09-03T04:41:28;0.20;;;0.20;;
64915;SDS011;51427;-27.442;153.014;2022-09-03T04:43:57;0.93;;;0.40;;
64915;SDS011;51427;-27.442;153.014;2022-09-03T04:46:26;0.13;;;0.13;;
64915;SDS011;51427;-27.442;153.014;2022-09-03T04:48:57;0.40;;;0.40;;
64915;SDS011;51427;-27.442;153.014;2022-09-03T04:51:25;0.63;;;0.38;;
64915;SDS011;51427;-27.442;153.014;2022-09-03T04:53:55;0.70;;;0.70;;
64915;SDS011;51427;-27.442;153.014;2022-09-03T04:56:25;0.30;;;0.30;;
64915;SDS011;51427;-27.442;153.014;2022-09-03T04:58:58;0.95;;;0.95;;
64915;SDS011;51427;-27.442;153.014;2022-09-03T05:01:35;2.55;;;1.23;;
64915;SDS011;51427;-27.442;153.014;2022-09-03T05:04:04;0.80;;;0.80;;
64915;SDS011;51427;-27.442;153.014;2022-09-03T05:06:32;1.13;;;1.02;;
64915;SDS011;51427;-27.442;153.014;2022-09-03T05:09:00;0.50;;;0.50;;
64915;SDS011;51427;-27.442;153.014;2022-09-03T05:11:28;0.17;;;0.17;;
64915;SDS011;51427;-27.442;153.014;2022-09-03T05:13:56;0.20;;;0.20;;
64915;SDS011;51427;-27.442;153.014;2022-09-03T05:16:25;0.20;;;0.20;;
64915;SDS011;51427;-27.442;153.014;2022-09-03T05:18:55;0.13;;;0.13;;
64915;SDS011;51427;-27.442;153.014;2022-09-03T05:21:24;0.45;;;0.25;;
64915;SDS011;51427;-27.442;153.014;2022-09-03T05:23:54;0.13;;;0.13;;
64915;SDS011;51427;-27.442;153.014;2022-09-03T05:26:24;0.80;;;0.20;;
64915;SDS011;51427;-27.442;153.014;2022-09-03T05:28:57;0.17;;;0.17;;
64915;SDS011;51427;-27.442;153.014;2022-09-03T05:31:26;0.47;;;0.30;;
64915;SDS011;51427;-27.442;153.014;2022-09-03T05:33:57;0.77;;;0.30;;
64915;SDS011;51427;-27.442;153.014;2022-09-03T05:36:28;0.20;;;0.20;;
64915;SDS011;51427;-27.442;153.014;2022-09-03T05:38:57;0.20;;;0.20;;
64915;SDS011;51427;-27.442;153.014;2022-09-03T05:41:26;0.10;;;0.10;;
64915;SDS011;51427;-27.442;153.014;2022-09-03T05:43:54;0.10;;;0.10;;
64915;SDS011;51427;-27.442;153.014;2022-09-03T05:46:26;0.20;;;0.20;;
64915;SDS011;51427;-27.442;153.014;2022-09-03T05:48:58;0.10;;;0.10;;
64915;SDS011;51427;-27.442;153.014;2022-09-03T05:51:30;0.40;;;0.25;;
64915;SDS011;51427;-27.442;153.014;2022-09-03T05:53:58;0.77;;;0.20;;
64915;SDS011;51427;-27.442;153.014;2022-09-03T05:56:28;0.10;;;0.10;;
64915;SDS011;51427;-27.442;153.014;2022-09-03T05:58:57;0.20;;;0.20;;
64915;SDS011;51427;-27.442;153.014;2022-09-03T06:01:30;0.75;;;0.22;;
64915;SDS011;51427;-27.442;153.014;2022-09-03T06:06:40;0.25;;;0.10;;
64915;SDS011;51427;-27.442;153.014;2022-09-03T06:09:10;1.00;;;0.20;;
64915;SDS011;51427;-27.442;153.014;2022-09-03T06:11:39;0.65;;;0.45;;
64915;SDS011;51427;-27.442;153.014;2022-09-03T06:14:08;0.30;;;0.20;;
64915;SDS011;51427;-27.442;153.014;2022-09-03T06:16:37;0.28;;;0.20;;
64915;SDS011;51427;-27.442;153.014;2022-09-03T06:19:07;0.10;;;0.10;;
64915;SDS011;51427;-27.442;153.014;2022-09-03T06:21:36;0.47;;;0.47;;
64915;SDS011;51427;-27.442;153.014;2022-09-03T06:24:08;0.38;;;0.20;;
64915;SDS011;51427;-27.442;153.014;2022-09-03T06:26:38;1.85;;;0.20;;
64915;SDS011;51427;-27.442;153.014;2022-09-03T06:29:05;0.15;;;0.13;;
64915;SDS011;51427;-27.442;153.014;2022-09-03T06:31:33;0.15;;;0.15;;
64915;SDS011;51427;-27.442;153.014;2022-09-03T06:34:01;0.82;;;0.10;;
64915;SDS011;51427;-27.442;153.014;2022-09-03T06:36:28;0.20;;;0.20;;
64915;SDS011;51427;-27.442;153.014;2022-09-03T06:38:56;0.40;;;0.30;;
64915;SDS011;51427;-27.442;153.014;2022-09-03T06:41:25;0.20;;;0.20;;
64915;SDS011;51427;-27.442;153.014;2022-09-03T06:43:57;0.25;;;0.25;;
64915;SDS011;51427;-27.442;153.014;2022-09-03T06:46:33;1.35;;;0.40;;
64915;SDS011;51427;-27.442;153.014;2022-09-03T06:49:03;0.10;;;0.10;;
64915;SDS011;51427;-27.442;153.014;2022-09-03T06:51:33;0.20;;;0.20;;
64915;SDS011;51427;-27.442;153.014;2022-09-03T06:54:04;0.70;;;0.22;;
64915;SDS011;51427;-27.442;153.014;2022-09-03T06:56:34;0.28;;;0.28;;
64915;SDS011;51427;-27.442;153.014;2022-09-03T06:59:04;1.38;;;0.20;;
64915;SDS011;51427;-27.442;153.014;2022-09-03T07:01:36;0.30;;;0.28;;
64915;SDS011;51427;-27.442;153.014;2022-09-03T07:04:05;0.40;;;0.30;;
64915;SDS011;51427;-27.442;153.014;2022-09-03T07:06:41;0.20;;;0.20;;
64915;SDS011;51427;-27.442;153.014;2022-09-03T07:09:09;0.65;;;0.50;;
64915;SDS011;51427;-27.442;153.014;2022-09-03T07:11:38;0.77;;;0.20;;
64915;SDS011;51427;-27.442;153.014;2022-09-03T07:14:11;0.30;;;0.30;;
64915;SDS011;51427;-27.442;153.014;2022-09-03T07:16:39;0.38;;;0.20;;
64915;SDS011;51427;-27.442;153.014;2022-09-03T07:19:08;0.35;;;0.30;;
64915;SDS011;51427;-27.442;153.014;2022-09-03T07:21:38;1.27;;;0.38;;
64915;SDS011;51427;-27.442;153.014;2022-09-03T07:24:07;0.45;;;0.45;;
64915;SDS011;51427;-27.442;153.014;2022-09-03T07:26:36;1.10;;;0.80;;
64915;SDS011;51427;-27.442;153.014;2022-09-03T07:29:06;0.77;;;0.77;;
64915;SDS011;51427;-27.442;153.014;2022-09-03T07:31:34;1.33;;;1.20;;
64915;SDS011;51427;-27.442;153.014;2022-09-03T07:34:05;1.70;;;1.60;;
64915;SDS011;51427;-27.442;153.014;2022-09-03T07:36:36;2.95;;;1.30;;
64915;SDS011;51427;-27.442;153.014;2022-09-03T07:39:05;3.00;;;1.50;;
64915;SDS011;51427;-27.442;153.014;2022-09-03T07:41:34;1.83;;;1.17;;
64915;SDS011;51427;-27.442;153.014;2022-09-03T07:44:02;1.40;;;1.30;;
64915;SDS011;51427;-27.442;153.014;2022-09-03T07:46:34;4.03;;;1.40;;
64915;SDS011;51427;-27.442;153.014;2022-09-03T07:49:03;1.15;;;1.05;;
64915;SDS011;51427;-27.442;153.014;2022-09-03T07:51:34;1.02;;;0.75;;
64915;SDS011;51427;-27.442;153.014;2022-09-03T07:54:04;0.80;;;0.68;;
64915;SDS011;51427;-27.442;153.014;2022-09-03T07:56:35;0.82;;;0.77;;
64915;SDS011;51427;-27.442;153.014;2022-09-03T07:59:04;2.30;;;1.10;;
64915;SDS011;51427;-27.442;153.014;2022-09-03T08:01:33;1.17;;;0.82;;
64915;SDS011;51427;-27.442;153.014;2022-09-03T08:04:01;0.82;;;0.80;;
64915;SDS011;51427;-27.442;153.014;2022-09-03T08:06:31;1.65;;;1.10;;
64915;SDS011;51427;-27.442;153.014;2022-09-03T08:09:00;1.30;;;1.20;;
64915;SDS011;51427;-27.442;153.014;2022-09-03T08:11:30;1.45;;;1.20;;
64915;SDS011;51427;-27.442;153.014;2022-09-03T08:14:00;0.80;;;0.80;;
64915;SDS011;51427;-27.442;153.014;2022-09-03T08:16:32;0.63;;;0.63;;
64915;SDS011;51427;-27.442;153.014;2022-09-03T08:19:01;0.40;;;0.40;;
64915;SDS011;51427;-27.442;153.014;2022-09-03T08:21:30;0.50;;;0.50;;
64915;SDS011;51427;-27.442;153.014;2022-09-03T08:23:58;1.33;;;0.40;;
64915;SDS011;51427;-27.442;153.014;2022-09-03T08:26:29;0.60;;;0.60;;
64915;SDS011;51427;-27.442;153.014;2022-09-03T08:28:59;1.27;;;1.17;;
64915;SDS011;51427;-27.442;153.014;2022-09-03T08:31:27;1.70;;;1.60;;
64915;SDS011;51427;-27.442;153.014;2022-09-03T08:33:57;2.28;;;2.08;;
64915;SDS011;51427;-27.442;153.014;2022-09-03T08:36:32;2.20;;;1.88;;
64915;SDS011;51427;-27.442;153.014;2022-09-03T08:39:02;1.65;;;1.30;;
64915;SDS011;51427;-27.442;153.014;2022-09-03T08:47:43;1.20;;;1.02;;
64915;SDS011;51427;-27.442;153.014;2022-09-03T08:50:37;3.10;;;1.45;;
64915;SDS011;51427;-27.442;153.014;2022-09-03T08:53:16;1.77;;;1.50;;
64915;SDS011;51427;-27.442;153.014;2022-09-03T08:56:11;1.25;;;1.10;;
64915;SDS011;51427;-27.442;153.014;2022-09-03T08:58:46;1.15;;;0.95;;
64915;SDS011;51427;-27.442;153.014;2022-09-03T09:01:18;1.10;;;0.70;;
64915;SDS011;51427;-27.442;153.014;2022-09-03T09:04:00;0.45;;;0.30;;
64915;SDS011;51427;-27.442;153.014;2022-09-03T09:09:38;0.63;;;0.50;;
64915;SDS011;51427;-27.442;153.014;2022-09-03T09:12:40;0.30;;;0.30;;
64915;SDS011;51427;-27.442;153.014;2022-09-03T09:20:33;0.32;;;0.32;;
64915;SDS011;51427;-27.442;153.014;2022-09-03T09:23:03;0.50;;;0.50;;
64915;SDS011;51427;-27.442;153.014;2022-09-03T09:25:33;0.82;;;0.60;;
64915;SDS011;51427;-27.442;153.014;2022-09-03T09:28:18;0.75;;;0.60;;
64915;SDS011;51427;-27.442;153.014;2022-09-03T09:30:48;0.82;;;0.60;;
64915;SDS011;51427;-27.442;153.014;2022-09-03T09:33:17;0.57;;;0.57;;
64915;SDS011;51427;-27.442;153.014;2022-09-03T09:35:49;1.35;;;0.65;;
64915;SDS011;51427;-27.442;153.014;2022-09-03T09:38:26;0.63;;;0.63;;
64915;SDS011;51427;-27.442;153.014;2022-09-03T09:41:19;0.43;;;0.40;;
64915;SDS011;51427;-27.442;153.014;2022-09-03T09:43:58;0.40;;;0.40;;
64915;SDS011;51427;-27.442;153.014;2022-09-03T09:46:37;0.30;;;0.30;;
64915;SDS011;51427;-27.442;153.014;2022-09-03T09:52:06;0.30;;;0.30;;
64915;SDS011;51427;-27.442;153.014;2022-09-03T09:54:38;0.68;;;0.50;;
64915;SDS011;51427;-27.442;153.014;2022-09-03T09:57:20;0.52;;;0.52;;
64915;SDS011;51427;-27.442;153.014;2022-09-03T10:00:03;1.05;;;0.70;;
64915;SDS011;51427;-27.442;153.014;2022-09-03T10:02:34;0.40;;;0.40;;
64915;SDS011;51427;-27.442;153.014;2022-09-03T10:05:38;1.33;;;0.40;;
64915;SDS011;51427;-27.442;153.014;2022-09-03T10:08:00;0.35;;;0.35;;
64915;SDS011;51427;-27.442;153.014;2022-09-03T10:10:38;0.57;;;0.35;;
64915;SDS011;51427;-27.442;153.014;2022-09-03T10:13:11;1.83;;;0.43;;
64915;SDS011;51427;-27.442;153.014;2022-09-03T10:18:45;0.32;;;0.32;;
64915;SDS011;51427;-27.442;153.014;2022-09-03T10:24:28;1.38;;;0.40;;
64915;SDS011;51427;-27.442;153.014;2022-09-03T10:27:07;0.38;;;0.25;;
64915;SDS011;51427;-27.442;153.014;2022-09-03T10:29:39;0.40;;;0.40;;
64915;SDS011;51427;-27.442;153.014;2022-09-03T10:32:14;0.68;;;0.47;;
64915;SDS011;51427;-27.442;153.014;2022-09-03T10:37:48;0.40;;;0.38;;
64915;SDS011;51427;-27.442;153.014;2022-09-03T10:40:38;0.95;;;0.32;;
64915;SDS011;51427;-27.442;153.014;2022-09-03T10:48:55;0.50;;;0.50;;
64915;SDS011;51427;-27.442;153.014;2022-09-03T10:51:54;0.38;;;0.38;;
64915;SDS011;51427;-27.442;153.014;2022-09-03T11:05:40;0.52;;;0.50;;
64915;SDS011;51427;-27.442;153.014;2022-09-03T11:10:55;0.98;;;0.50;;
64915;SDS011;51427;-27.442;153.014;2022-09-03T11:13:34;1.27;;;0.73;;
64915;SDS011;51427;-27.442;153.014;2022-09-03T11:16:23;0.95;;;0.50;;
64915;SDS011;51427;-27.442;153.014;2022-09-03T11:18:57;0.73;;;0.40;;
64915;SDS011;51427;-27.442;153.014;2022-09-03T11:21:33;0.75;;;0.73;;
64915;SDS011;51427;-27.442;153.014;2022-09-03T11:24:04;2.70;;;1.35;;
64915;SDS011;51427;-27.442;153.014;2022-09-03T11:26:33;3.33;;;0.73;;
64915;SDS011;51427;-27.442;153.014;2022-09-03T11:37:06;1.90;;;0.70;;
64915;SDS011;51427;-27.442;153.014;2022-09-03T11:42:26;1.25;;;0.90;;
64915;SDS011;51427;-27.442;153.014;2022-09-03T11:45:20;0.75;;;0.40;;
64915;SDS011;51427;-27.442;153.014;2022-09-03T11:47:48;1.50;;;0.73;;
64915;SDS011;51427;-27.442;153.014;2022-09-03T11:50:19;1.85;;;0.60;;
64915;SDS011;51427;-27.442;153.014;2022-09-03T11:52:53;1.42;;;0.88;;
64915;SDS011;51427;-27.442;153.014;2022-09-03T11:55:50;1.60;;;0.80;;
64915;SDS011;51427;-27.442;153.014;2022-09-03T12:01:09;0.73;;;0.60;;
64915;SDS011;51427;-27.442;153.014;2022-09-03T12:12:49;0.50;;;0.50;;
64915;SDS011;51427;-27.442;153.014;2022-09-03T12:20:46;0.57;;;0.43;;
64915;SDS011;51427;-27.442;153.014;2022-09-03T12:23:29;1.15;;;0.50;;
64915;SDS011;51427;-27.442;153.014;2022-09-03T12:26:16;0.60;;;0.40;;
64915;SDS011;51427;-27.442;153.014;2022-09-03T12:28:47;0.40;;;0.40;;
64915;SDS011;51427;-27.442;153.014;2022-09-03T12:31:17;0.13;;;0.10;;
64915;SDS011;51427;-27.442;153.014;2022-09-03T12:33:52;0.52;;;0.30;;
64915;SDS011;51427;-27.442;153.014;2022-09-03T12:42:00;0.40;;;0.22;;
64915;SDS011;51427;-27.442;153.014;2022-09-03T12:47:09;0.90;;;0.30;;
64915;SDS011;51427;-27.442;153.014;2022-09-03T12:49:51;0.30;;;0.30;;
64915;SDS011;51427;-27.442;153.014;2022-09-03T12:52:34;1.52;;;0.40;;
64915;SDS011;51427;-27.442;153.014;2022-09-03T12:55:17;1.02;;;0.20;;
64915;SDS011;51427;-27.442;153.014;2022-09-03T13:00:32;0.30;;;0.20;;
64915;SDS011;51427;-27.442;153.014;2022-09-03T13:03:05;0.28;;;0.28;;
64915;SDS011;51427;-27.442;153.014;2022-09-03T13:05:46;0.10;;;0.10;;
64915;SDS011;51427;-27.442;153.014;2022-09-03T13:08:21;0.38;;;0.20;;
64915;SDS011;51427;-27.442;153.014;2022-09-03T13:10:52;0.20;;;0.20;;
64915;SDS011;51427;-27.442;153.014;2022-09-03T13:13:26;0.30;;;0.20;;
64915;SDS011;51427;-27.442;153.014;2022-09-03T13:16:01;0.40;;;0.40;;
64915;SDS011;51427;-27.442;153.014;2022-09-03T13:18:40;0.10;;;0.10;;
64915;SDS011;51427;-27.442;153.014;2022-09-03T13:21:45;0.25;;;0.22;;
64915;SDS011;51427;-27.442;153.014;2022-09-03T13:24:56;0.35;;;0.30;;
64915;SDS011;51427;-27.442;153.014;2022-09-03T13:27:38;0.20;;;0.20;;
64915;SDS011;51427;-27.442;153.014;2022-09-03T13:30:47;0.10;;;0.10;;
64915;SDS011;51427;-27.442;153.014;2022-09-03T13:33:19;0.98;;;0.20;;
64915;SDS011;51427;-27.442;153.014;2022-09-03T13:36:08;0.43;;;0.25;;
64915;SDS011;51427;-27.442;153.014;2022-09-03T13:38:45;0.20;;;0.20;;
64915;SDS011;51427;-27.442;153.014;2022-09-03T13:44:17;1.08;;;0.20;;
64915;SDS011;51427;-27.442;153.014;2022-09-03T13:46:59;0.55;;;0.30;;
64915;SDS011;51427;-27.442;153.014;2022-09-03T13:49:41;0.10;;;0.10;;
64915;SDS011;51427;-27.442;153.014;2022-09-03T13:55:09;0.20;;;0.20;;
64915;SDS011;51427;-27.442;153.014;2022-09-03T14:14:28;0.20;;;0.20;;
64915;SDS011;51427;-27.442;153.014;2022-09-03T14:22:58;0.20;;;0.20;;
64915;SDS011;51427;-27.442;153.014;2022-09-03T14:25:56;0.90;;;0.20;;
64915;SDS011;51427;-27.442;153.014;2022-09-03T14:28:30;0.22;;;0.22;;
64915;SDS011;51427;-27.442;153.014;2022-09-03T14:31:18;0.13;;;0.10;;
64915;SDS011;51427;-27.442;153.014;2022-09-03T14:36:44;0.10;;;0.10;;
64915;SDS011;51427;-27.442;153.014;2022-09-03T14:39:46;0.20;;;0.20;;
64915;SDS011;51427;-27.442;153.014;2022-09-03T14:45:12;0.20;;;0.20;;
64915;SDS011;51427;-27.442;153.014;2022-09-03T14:53:23;0.20;;;0.20;;
64915;SDS011;51427;-27.442;153.014;2022-09-03T15:01:35;1.50;;;0.20;;
64915;SDS011;51427;-27.442;153.014;2022-09-03T15:18:12;0.52;;;0.30;;
64915;SDS011;51427;-27.442;153.014;2022-09-03T15:20:53;0.77;;;0.20;;
64915;SDS011;51427;-27.442;153.014;2022-09-03T15:26:55;0.22;;;0.20;;
64915;SDS011;51427;-27.442;153.014;2022-09-03T15:35:09;0.13;;;0.13;;
64915;SDS011;51427;-27.442;153.014;2022-09-03T15:37:43;0.30;;;0.30;;
64915;SDS011;51427;-27.442;153.014;2022-09-03T15:43:09;0.30;;;0.30;;
64915;SDS011;51427;-27.442;153.014;2022-09-03T15:51:22;0.30;;;0.30;;
64915;SDS011;51427;-27.442;153.014;2022-09-03T15:54:18;0.52;;;0.40;;
64915;SDS011;51427;-27.442;153.014;2022-09-03T15:57:14;0.35;;;0.28;;
64915;SDS011;51427;-27.442;153.014;2022-09-03T16:00:28;0.20;;;0.20;;
64915;SDS011;51427;-27.442;153.014;2022-09-03T16:02:41;1.05;;;0.20;;
64915;SDS011;51427;-27.442;153.014;2022-09-03T16:05:17;0.30;;;0.30;;
64915;SDS011;51427;-27.442;153.014;2022-09-03T16:08:03;0.10;;;0.10;;
64915;SDS011;51427;-27.442;153.014;2022-09-03T16:10:45;0.15;;;0.15;;
64915;SDS011;51427;-27.442;153.014;2022-09-03T16:16:45;0.33;;;0.20;;
64915;SDS011;51427;-27.442;153.014;2022-09-03T16:19:30;0.20;;;0.20;;
64915;SDS011;51427;-27.442;153.014;2022-09-03T16:24:48;0.50;;;0.20;;
64915;SDS011;51427;-27.442;153.014;2022-09-03T16:27:25;1.65;;;0.20;;
64915;SDS011;51427;-27.442;153.014;2022-09-03T16:30:01;1.20;;;0.13;;
64915;SDS011;51427;-27.442;153.014;2022-09-03T16:38:25;0.10;;;0.10;;
64915;SDS011;51427;-27.442;153.014;2022-09-03T16:44:00;0.10;;;0.10;;
64915;SDS011;51427;-27.442;153.014;2022-09-03T16:46:35;0.28;;;0.15;;
64915;SDS011;51427;-27.442;153.014;2022-09-03T16:55:21;0.15;;;0.15;;
64915;SDS011;51427;-27.442;153.014;2022-09-03T17:00:50;0.10;;;0.10;;
64915;SDS011;51427;-27.442;153.014;2022-09-03T17:04:11;0.20;;;0.20;;
64915;SDS011;51427;-27.442;153.014;2022-09-03T17:06:59;0.82;;;0.13;;
64915;SDS011;51427;-27.442;153.014;2022-09-03T17:09:44;0.20;;;0.20;;
64915;SDS011;51427;-27.442;153.014;2022-09-03T17:15:26;0.20;;;0.20;;
64915;SDS011;51427;-27.442;153.014;2022-09-03T17:18:20;0.35;;;0.20;;
64915;SDS011;51427;-27.442;153.014;2022-09-03T17:24:18;0.10;;;0.10;;
64915;SDS011;51427;-27.442;153.014;2022-09-03T17:27:20;0.30;;;0.30;;
64915;SDS011;51427;-27.442;153.014;2022-09-03T17:31:14;0.20;;;0.20;;
64915;SDS011;51427;-27.442;153.014;2022-09-03T17:47:41;0.10;;;0.10;;
64915;SDS011;51427;-27.442;153.014;2022-09-03T17:53:11;0.88;;;0.17;;
64915;SDS011;51427;-27.442;153.014;2022-09-03T17:55:52;0.10;;;0.10;;
64915;SDS011;51427;-27.442;153.014;2022-09-03T17:58:28;1.20;;;0.25;;
64915;SDS011;51427;-27.442;153.014;2022-09-03T18:03:53;0.35;;;0.20;;
64915;SDS011;51427;-27.442;153.014;2022-09-03T18:06:53;2.10;;;0.50;;
64915;SDS011;51427;-27.442;153.014;2022-09-03T18:15:24;1.35;;;0.45;;
64915;SDS011;51427;-27.442;153.014;2022-09-03T18:18:09;1.27;;;0.25;;
64915;SDS011;51427;-27.442;153.014;2022-09-03T18:20:49;0.38;;;0.20;;
64915;SDS011;51427;-27.442;153.014;2022-09-03T18:26:33;0.52;;;0.20;;
64915;SDS011;51427;-27.442;153.014;2022-09-03T18:29:40;1.17;;;0.20;;
64915;SDS011;51427;-27.442;153.014;2022-09-03T18:32:28;0.45;;;0.40;;
64915;SDS011;51427;-27.442;153.014;2022-09-03T18:35:14;0.40;;;0.20;;
64915;SDS011;51427;-27.442;153.014;2022-09-03T18:38:01;0.25;;;0.20;;
64915;SDS011;51427;-27.442;153.014;2022-09-03T18:53:13;0.10;;;0.10;;
64915;SDS011;51427;-27.442;153.014;2022-09-03T19:02:21;0.20;;;0.20;;
64915;SDS011;51427;-27.442;153.014;2022-09-03T19:05:18;0.43;;;0.28;;
64915;SDS011;51427;-27.442;153.014;2022-09-03T19:12:48;0.22;;;0.20;;
64915;SDS011;51427;-27.442;153.014;2022-09-03T19:21:45;1.60;;;0.60;;
64915;SDS011;51427;-27.442;153.014;2022-09-03T19:24:36;1.23;;;0.38;;
64915;SDS011;51427;-27.442;153.014;2022-09-03T19:30:35;0.43;;;0.30;;
64915;SDS011;51427;-27.442;153.014;2022-09-03T19:36:54;1.10;;;0.30;;
64915;SDS011;51427;-27.442;153.014;2022-09-03T19:46:10;0.57;;;0.30;;
64915;SDS011;51427;-27.442;153.014;2022-09-03T19:52:05;1.52;;;0.22;;
64915;SDS011;51427;-27.442;153.014;2022-09-03T19:54:54;1.88;;;0.82;;
64915;SDS011;51427;-27.442;153.014;2022-09-03T19:57:43;0.88;;;0.40;;
64915;SDS011;51427;-27.442;153.014;2022-09-03T20:00:32;0.57;;;0.30;;
64915;SDS011;51427;-27.442;153.014;2022-09-03T20:03:18;2.53;;;0.60;;
64915;SDS011;51427;-27.442;153.014;2022-09-03T20:06:04;2.47;;;0.50;;
64915;SDS011;51427;-27.442;153.014;2022-09-03T20:08:52;1.13;;;0.35;;
64915;SDS011;51427;-27.442;153.014;2022-09-03T20:11:43;0.75;;;0.45;;
64915;SDS011;51427;-27.442;153.014;2022-09-03T20:14:14;4.80;;;0.60;;
64915;SDS011;51427;-27.442;153.014;2022-09-03T20:22:38;2.63;;;0.73;;
64915;SDS011;51427;-27.442;153.014;2022-09-03T20:28:57;1.75;;;0.52;;
64915;SDS011;51427;-27.442;153.014;2022-09-03T20:45:16;1.58;;;0.40;;
64915;SDS011;51427;-27.442;153.014;2022-09-03T20:47:54;1.38;;;0.40;;
64915;SDS011;51427;-27.442;153.014;2022-09-03T20:50:33;1.20;;;0.50;;
64915;SDS011;51427;-27.442;153.014;2022-09-03T21:09:40;1.13;;;0.50;;
64915;SDS011;51427;-27.442;153.014;2022-09-03T21:15:34;4.25;;;0.75;;